TAF LDZA 181125Z 1812/1912 15004KT CAVOK
                 TX32/1814Z TN17/1903Z
    PROB30 TEMPO 1812/1815 22006KT=
TAF LDZA 180525Z 1806/1906 VRB02KT CAVOK
                 TX31/1814Z TN17/1903Z
    PROB30 TEMPO 1810/1815 22008KT=
TAF LDZA 172325Z 1800/1900 VRB02KT CAVOK
                 TX31/1815Z TN17/1803Z
           TEMPO 1811/1814 22008KT=
TAF LDZA 171725Z 1718/1818 VRB02KT CAVOK
                 TX32/1814Z TN18/1803Z
    PROB40 TEMPO 1718/1721 04008KT
    PROB30 TEMPO 1720/1800 TS FEW060CB
           TEMPO 1811/1816 23007KT=
TAF LDZA 171125Z 1712/1812 VRB02KT CAVOK
                 TX31/1714Z TN18/1803Z
    PROB40 TEMPO 1718/1721 04008KT
    PROB30 TEMPO 1719/1806 TS FEW060CB=
TAF LDZA 170525Z 1706/1806 VRB02KT CAVOK
                 TX31/1714Z TN18/1803Z=